sensor_id;sensor_type;location;lat;lon;timestamp;P1;durP1;ratioP1;P2;durP2;ratioP2
84117;SDS011;74212;51.132;6.950;2023-11-21T00:00:29;3.70;;;1.80;;
84117;SDS011;74212;51.132;6.950;2023-11-21T00:02:54;2.63;;;1.83;;
84117;SDS011;74212;51.132;6.950;2023-11-21T00:05:20;2.72;;;1.98;;
84117;SDS011;74212;51.132;6.950;2023-11-21T00:07:48;3.05;;;2.17;;
84117;SDS011;74212;51.132;6.950;2023-11-21T00:10:13;3.38;;;1.65;;
84117;SDS011;74212;51.132;6.950;2023-11-21T00:12:39;2.88;;;1.73;;
84117;SDS011;74212;51.132;6.950;2023-11-21T00:15:07;2.90;;;1.67;;
84117;SDS011;74212;51.132;6.950;2023-11-21T00:17:41;2.50;;;1.70;;
84117;SDS011;74212;51.132;6.950;2023-11-21T00:20:07;2.17;;;1.67;;
84117;SDS011;74212;51.132;6.950;2023-11-21T00:22:34;2.33;;;1.65;;
84117;SDS011;74212;51.132;6.950;2023-11-21T00:24:59;2.97;;;1.90;;
84117;SDS011;74212;51.132;6.950;2023-11-21T00:27:25;3.70;;;1.75;;
84117;SDS011;74212;51.132;6.950;2023-11-21T00:29:50;3.53;;;1.90;;
84117;SDS011;74212;51.132;6.950;2023-11-21T00:32:16;2.92;;;1.85;;
84117;SDS011;74212;51.132;6.950;2023-11-21T00:34:41;3.53;;;1.25;;
84117;SDS011;74212;51.132;6.950;2023-11-21T00:37:07;2.30;;;1.50;;
84117;SDS011;74212;51.132;6.950;2023-11-21T00:39:32;4.00;;;1.70;;
84117;SDS011;74212;51.132;6.950;2023-11-21T00:41:58;2.25;;;1.58;;
84117;SDS011;74212;51.132;6.950;2023-11-21T00:44:23;3.33;;;1.83;;
84117;SDS011;74212;51.132;6.950;2023-11-21T00:46:49;2.50;;;1.60;;
84117;SDS011;74212;51.132;6.950;2023-11-21T00:49:15;3.08;;;1.73;;
84117;SDS011;74212;51.132;6.950;2023-11-21T00:51:40;2.75;;;1.63;;
84117;SDS011;74212;51.132;6.950;2023-11-21T00:54:06;3.55;;;2.35;;
84117;SDS011;74212;51.132;6.950;2023-11-21T00:56:31;2.70;;;1.60;;
84117;SDS011;74212;51.132;6.950;2023-11-21T00:58:57;2.55;;;1.77;;
84117;SDS011;74212;51.132;6.950;2023-11-21T01:01:22;2.17;;;1.65;;
84117;SDS011;74212;51.132;6.950;2023-11-21T01:03:48;2.20;;;1.42;;
84117;SDS011;74212;51.132;6.950;2023-11-21T01:06:14;2.67;;;1.60;;
84117;SDS011;74212;51.132;6.950;2023-11-21T01:08:40;2.75;;;1.65;;
84117;SDS011;74212;51.132;6.950;2023-11-21T01:11:05;3.50;;;1.92;;
84117;SDS011;74212;51.132;6.950;2023-11-21T01:13:33;2.13;;;1.88;;
84117;SDS011;74212;51.132;6.950;2023-11-21T01:15:58;2.55;;;1.75;;
84117;SDS011;74212;51.132;6.950;2023-11-21T01:18:24;2.75;;;1.80;;
84117;SDS011;74212;51.132;6.950;2023-11-21T01:20:50;3.45;;;1.80;;
84117;SDS011;74212;51.132;6.950;2023-11-21T01:23:17;2.67;;;1.90;;
84117;SDS011;74212;51.132;6.950;2023-11-21T01:25:43;2.42;;;1.65;;
84117;SDS011;74212;51.132;6.950;2023-11-21T01:28:08;2.95;;;1.80;;
84117;SDS011;74212;51.132;6.950;2023-11-21T01:30:33;3.20;;;1.63;;
84117;SDS011;74212;51.132;6.950;2023-11-21T01:33:00;3.25;;;1.60;;
84117;SDS011;74212;51.132;6.950;2023-11-21T01:35:26;2.45;;;1.70;;
84117;SDS011;74212;51.132;6.950;2023-11-21T01:37:51;3.05;;;1.70;;
84117;SDS011;74212;51.132;6.950;2023-11-21T01:40:16;2.30;;;1.65;;
84117;SDS011;74212;51.132;6.950;2023-11-21T01:42:42;2.80;;;1.80;;
84117;SDS011;74212;51.132;6.950;2023-11-21T01:45:08;2.70;;;2.05;;
84117;SDS011;74212;51.132;6.950;2023-11-21T01:47:34;2.88;;;1.80;;
84117;SDS011;74212;51.132;6.950;2023-11-21T01:50:01;4.00;;;1.90;;
84117;SDS011;74212;51.132;6.950;2023-11-21T01:52:29;3.90;;;2.08;;
84117;SDS011;74212;51.132;6.950;2023-11-21T01:54:54;2.95;;;1.80;;
84117;SDS011;74212;51.132;6.950;2023-11-21T01:57:20;2.78;;;1.52;;
84117;SDS011;74212;51.132;6.950;2023-11-21T01:59:45;2.30;;;1.67;;
84117;SDS011;74212;51.132;6.950;2023-11-21T02:02:12;2.72;;;1.73;;
84117;SDS011;74212;51.132;6.950;2023-11-21T02:04:38;2.30;;;1.70;;
84117;SDS011;74212;51.132;6.950;2023-11-21T02:07:03;2.78;;;2.03;;
84117;SDS011;74212;51.132;6.950;2023-11-21T02:09:32;2.92;;;1.80;;
84117;SDS011;74212;51.132;6.950;2023-11-21T02:12:03;3.15;;;2.17;;
84117;SDS011;74212;51.132;6.950;2023-11-21T02:14:29;2.45;;;1.73;;
84117;SDS011;74212;51.132;6.950;2023-11-21T02:16:55;2.88;;;1.83;;
84117;SDS011;74212;51.132;6.950;2023-11-21T02:19:25;2.47;;;1.63;;
84117;SDS011;74212;51.132;6.950;2023-11-21T02:21:51;2.78;;;1.67;;
84117;SDS011;74212;51.132;6.950;2023-11-21T02:24:21;2.78;;;1.75;;
84117;SDS011;74212;51.132;6.950;2023-11-21T02:26:47;2.97;;;2.17;;
84117;SDS011;74212;51.132;6.950;2023-11-21T02:29:13;2.88;;;1.80;;
84117;SDS011;74212;51.132;6.950;2023-11-21T02:31:38;2.85;;;1.63;;
84117;SDS011;74212;51.132;6.950;2023-11-21T02:34:13;2.85;;;2.05;;
84117;SDS011;74212;51.132;6.950;2023-11-21T02:36:42;3.03;;;1.92;;
84117;SDS011;74212;51.132;6.950;2023-11-21T02:39:08;3.45;;;1.70;;
84117;SDS011;74212;51.132;6.950;2023-11-21T02:41:34;2.78;;;1.98;;
84117;SDS011;74212;51.132;6.950;2023-11-21T02:44:00;2.88;;;1.63;;
84117;SDS011;74212;51.132;6.950;2023-11-21T02:46:25;3.67;;;2.03;;
84117;SDS011;74212;51.132;6.950;2023-11-21T02:48:51;4.43;;;1.70;;
84117;SDS011;74212;51.132;6.950;2023-11-21T02:51:18;2.75;;;1.80;;
84117;SDS011;74212;51.132;6.950;2023-11-21T02:53:44;3.38;;;2.15;;
84117;SDS011;74212;51.132;6.950;2023-11-21T02:56:11;2.45;;;1.83;;
84117;SDS011;74212;51.132;6.950;2023-11-21T02:58:37;2.95;;;1.67;;
84117;SDS011;74212;51.132;6.950;2023-11-21T03:01:02;2.17;;;1.80;;
84117;SDS011;74212;51.132;6.950;2023-11-21T03:03:30;2.20;;;1.73;;
84117;SDS011;74212;51.132;6.950;2023-11-21T03:05:55;2.65;;;1.83;;
84117;SDS011;74212;51.132;6.950;2023-11-21T03:08:21;1.83;;;1.55;;
84117;SDS011;74212;51.132;6.950;2023-11-21T03:10:46;2.13;;;1.80;;
84117;SDS011;74212;51.132;6.950;2023-11-21T03:13:12;2.28;;;1.60;;
84117;SDS011;74212;51.132;6.950;2023-11-21T03:15:37;3.95;;;1.77;;
84117;SDS011;74212;51.132;6.950;2023-11-21T03:18:02;2.40;;;1.70;;
84117;SDS011;74212;51.132;6.950;2023-11-21T03:20:29;2.42;;;1.77;;
84117;SDS011;74212;51.132;6.950;2023-11-21T03:22:55;2.47;;;1.80;;
84117;SDS011;74212;51.132;6.950;2023-11-21T03:25:20;2.15;;;1.67;;
84117;SDS011;74212;51.132;6.950;2023-11-21T03:27:48;2.25;;;1.73;;
84117;SDS011;74212;51.132;6.950;2023-11-21T03:30:14;2.78;;;2.08;;
84117;SDS011;74212;51.132;6.950;2023-11-21T03:32:40;2.85;;;1.90;;
84117;SDS011;74212;51.132;6.950;2023-11-21T03:35:05;2.38;;;1.40;;
84117;SDS011;74212;51.132;6.950;2023-11-21T03:37:31;2.10;;;1.55;;
84117;SDS011;74212;51.132;6.950;2023-11-21T03:39:56;2.50;;;1.90;;
84117;SDS011;74212;51.132;6.950;2023-11-21T03:42:22;2.50;;;1.75;;
84117;SDS011;74212;51.132;6.950;2023-11-21T03:44:47;2.67;;;1.67;;
84117;SDS011;74212;51.132;6.950;2023-11-21T03:47:12;2.08;;;1.60;;
84117;SDS011;74212;51.132;6.950;2023-11-21T03:49:38;2.72;;;1.90;;
84117;SDS011;74212;51.132;6.950;2023-11-21T03:52:03;1.75;;;1.63;;
84117;SDS011;74212;51.132;6.950;2023-11-21T03:54:29;2.47;;;1.52;;
84117;SDS011;74212;51.132;6.950;2023-11-21T03:56:54;2.17;;;1.67;;
84117;SDS011;74212;51.132;6.950;2023-11-21T03:59:20;1.88;;;1.58;;
84117;SDS011;74212;51.132;6.950;2023-11-21T04:01:45;2.35;;;1.58;;
84117;SDS011;74212;51.132;6.950;2023-11-21T04:04:11;1.67;;;1.25;;
84117;SDS011;74212;51.132;6.950;2023-11-21T04:06:36;2.58;;;1.77;;
84117;SDS011;74212;51.132;6.950;2023-11-21T04:09:02;2.92;;;2.17;;
84117;SDS011;74212;51.132;6.950;2023-11-21T04:11:29;2.35;;;1.67;;
84117;SDS011;74212;51.132;6.950;2023-11-21T04:13:55;2.38;;;1.75;;
84117;SDS011;74212;51.132;6.950;2023-11-21T04:16:20;2.40;;;1.65;;
84117;SDS011;74212;51.132;6.950;2023-11-21T04:18:45;2.35;;;1.73;;
84117;SDS011;74212;51.132;6.950;2023-11-21T04:21:11;1.95;;;1.40;;
84117;SDS011;74212;51.132;6.950;2023-11-21T04:23:36;2.38;;;1.65;;
84117;SDS011;74212;51.132;6.950;2023-11-21T04:26:01;2.63;;;2.15;;
84117;SDS011;74212;51.132;6.950;2023-11-21T04:28:27;7.07;;;2.15;;
84117;SDS011;74212;51.132;6.950;2023-11-21T04:30:53;2.63;;;2.08;;
84117;SDS011;74212;51.132;6.950;2023-11-21T04:33:18;2.92;;;1.70;;
84117;SDS011;74212;51.132;6.950;2023-11-21T04:35:43;4.75;;;1.77;;
84117;SDS011;74212;51.132;6.950;2023-11-21T04:38:09;4.47;;;1.80;;
84117;SDS011;74212;51.132;6.950;2023-11-21T04:40:34;2.35;;;1.70;;
84117;SDS011;74212;51.132;6.950;2023-11-21T04:43:00;3.22;;;1.70;;
84117;SDS011;74212;51.132;6.950;2023-11-21T04:45:26;3.95;;;1.90;;
84117;SDS011;74212;51.132;6.950;2023-11-21T04:47:51;4.32;;;1.95;;
84117;SDS011;74212;51.132;6.950;2023-11-21T04:50:17;2.88;;;1.50;;
84117;SDS011;74212;51.132;6.950;2023-11-21T04:52:43;2.47;;;1.80;;
84117;SDS011;74212;51.132;6.950;2023-11-21T04:55:08;3.35;;;1.83;;
84117;SDS011;74212;51.132;6.950;2023-11-21T04:57:35;3.47;;;2.10;;
84117;SDS011;74212;51.132;6.950;2023-11-21T05:00:01;3.17;;;1.92;;
84117;SDS011;74212;51.132;6.950;2023-11-21T05:02:26;4.10;;;1.50;;
84117;SDS011;74212;51.132;6.950;2023-11-21T05:04:52;5.18;;;2.00;;
84117;SDS011;74212;51.132;6.950;2023-11-21T05:07:18;3.58;;;1.70;;
84117;SDS011;74212;51.132;6.950;2023-11-21T05:09:44;2.65;;;1.55;;
84117;SDS011;74212;51.132;6.950;2023-11-21T05:12:11;4.25;;;1.63;;
84117;SDS011;74212;51.132;6.950;2023-11-21T05:14:36;3.10;;;2.00;;
84117;SDS011;74212;51.132;6.950;2023-11-21T05:17:02;4.55;;;1.52;;
84117;SDS011;74212;51.132;6.950;2023-11-21T05:19:29;2.55;;;1.80;;
84117;SDS011;74212;51.132;6.950;2023-11-21T05:21:54;3.42;;;1.95;;
84117;SDS011;74212;51.132;6.950;2023-11-21T05:24:20;2.75;;;1.55;;
84117;SDS011;74212;51.132;6.950;2023-11-21T05:26:45;3.45;;;1.80;;
84117;SDS011;74212;51.132;6.950;2023-11-21T05:29:10;2.22;;;1.60;;
84117;SDS011;74212;51.132;6.950;2023-11-21T05:31:36;2.65;;;1.73;;
84117;SDS011;74212;51.132;6.950;2023-11-21T05:34:02;1.95;;;1.50;;
84117;SDS011;74212;51.132;6.950;2023-11-21T05:36:30;2.75;;;1.52;;
84117;SDS011;74212;51.132;6.950;2023-11-21T05:38:55;3.17;;;1.67;;
84117;SDS011;74212;51.132;6.950;2023-11-21T05:41:21;2.30;;;1.73;;
84117;SDS011;74212;51.132;6.950;2023-11-21T05:43:46;2.55;;;1.65;;
84117;SDS011;74212;51.132;6.950;2023-11-21T05:46:12;4.10;;;1.65;;
84117;SDS011;74212;51.132;6.950;2023-11-21T05:48:38;3.13;;;2.05;;
84117;SDS011;74212;51.132;6.950;2023-11-21T05:51:04;6.22;;;1.88;;
84117;SDS011;74212;51.132;6.950;2023-11-21T05:53:30;3.42;;;1.73;;
84117;SDS011;74212;51.132;6.950;2023-11-21T05:55:56;2.90;;;1.80;;
84117;SDS011;74212;51.132;6.950;2023-11-21T05:58:21;4.03;;;1.80;;
84117;SDS011;74212;51.132;6.950;2023-11-21T06:00:47;6.22;;;1.92;;
84117;SDS011;74212;51.132;6.950;2023-11-21T06:03:13;2.95;;;1.42;;
84117;SDS011;74212;51.132;6.950;2023-11-21T06:05:38;5.10;;;1.88;;
84117;SDS011;74212;51.132;6.950;2023-11-21T06:08:03;4.93;;;2.47;;
84117;SDS011;74212;51.132;6.950;2023-11-21T06:10:28;3.20;;;2.00;;
84117;SDS011;74212;51.132;6.950;2023-11-21T06:12:54;5.38;;;2.03;;
84117;SDS011;74212;51.132;6.950;2023-11-21T06:15:19;4.60;;;1.55;;
84117;SDS011;74212;51.132;6.950;2023-11-21T06:17:47;4.43;;;1.40;;
84117;SDS011;74212;51.132;6.950;2023-11-21T06:20:17;2.65;;;1.90;;
84117;SDS011;74212;51.132;6.950;2023-11-21T06:22:43;5.72;;;1.85;;
84117;SDS011;74212;51.132;6.950;2023-11-21T06:25:10;5.38;;;2.42;;
84117;SDS011;74212;51.132;6.950;2023-11-21T06:27:38;4.78;;;1.70;;
84117;SDS011;74212;51.132;6.950;2023-11-21T06:30:05;4.10;;;1.85;;
84117;SDS011;74212;51.132;6.950;2023-11-21T06:32:32;4.78;;;2.10;;
84117;SDS011;74212;51.132;6.950;2023-11-21T06:34:57;6.78;;;1.90;;
84117;SDS011;74212;51.132;6.950;2023-11-21T06:37:26;5.35;;;2.13;;
84117;SDS011;74212;51.132;6.950;2023-11-21T06:39:52;6.47;;;2.53;;
84117;SDS011;74212;51.132;6.950;2023-11-21T06:42:18;7.18;;;1.98;;
84117;SDS011;74212;51.132;6.950;2023-11-21T06:44:47;6.05;;;2.35;;
84117;SDS011;74212;51.132;6.950;2023-11-21T06:47:13;5.80;;;2.15;;
84117;SDS011;74212;51.132;6.950;2023-11-21T06:49:38;6.18;;;2.42;;
84117;SDS011;74212;51.132;6.950;2023-11-21T06:52:04;5.90;;;2.15;;
84117;SDS011;74212;51.132;6.950;2023-11-21T06:54:33;3.50;;;2.10;;
84117;SDS011;74212;51.132;6.950;2023-11-21T06:56:59;5.80;;;2.55;;
84117;SDS011;74212;51.132;6.950;2023-11-21T06:59:24;6.55;;;2.35;;
84117;SDS011;74212;51.132;6.950;2023-11-21T07:01:50;7.07;;;2.20;;
84117;SDS011;74212;51.132;6.950;2023-11-21T07:04:15;5.20;;;2.05;;
84117;SDS011;74212;51.132;6.950;2023-11-21T07:06:41;4.80;;;2.20;;
84117;SDS011;74212;51.132;6.950;2023-11-21T07:09:06;5.43;;;2.60;;
84117;SDS011;74212;51.132;6.950;2023-11-21T07:11:33;8.40;;;2.22;;
84117;SDS011;74212;51.132;6.950;2023-11-21T07:13:59;4.55;;;2.10;;
84117;SDS011;74212;51.132;6.950;2023-11-21T07:16:25;3.88;;;2.22;;
84117;SDS011;74212;51.132;6.950;2023-11-21T07:18:51;3.60;;;2.10;;
84117;SDS011;74212;51.132;6.950;2023-11-21T07:21:17;4.68;;;1.98;;
84117;SDS011;74212;51.132;6.950;2023-11-21T07:23:42;4.57;;;1.98;;
84117;SDS011;74212;51.132;6.950;2023-11-21T07:26:08;6.32;;;1.83;;
84117;SDS011;74212;51.132;6.950;2023-11-21T07:28:35;2.58;;;1.65;;
84117;SDS011;74212;51.132;6.950;2023-11-21T07:31:01;4.70;;;2.30;;
84117;SDS011;74212;51.132;6.950;2023-11-21T07:33:28;5.22;;;1.95;;
84117;SDS011;74212;51.132;6.950;2023-11-21T07:35:53;4.82;;;1.80;;
84117;SDS011;74212;51.132;6.950;2023-11-21T07:38:19;4.20;;;2.65;;
84117;SDS011;74212;51.132;6.950;2023-11-21T07:40:44;5.38;;;2.05;;
84117;SDS011;74212;51.132;6.950;2023-11-21T07:43:09;3.05;;;1.90;;
84117;SDS011;74212;51.132;6.950;2023-11-21T07:45:35;3.00;;;1.77;;
84117;SDS011;74212;51.132;6.950;2023-11-21T07:48:01;2.15;;;1.45;;
84117;SDS011;74212;51.132;6.950;2023-11-21T07:50:28;5.28;;;2.17;;
84117;SDS011;74212;51.132;6.950;2023-11-21T07:52:53;6.25;;;1.83;;
84117;SDS011;74212;51.132;6.950;2023-11-21T07:55:19;4.22;;;1.83;;
84117;SDS011;74212;51.132;6.950;2023-11-21T07:57:44;4.20;;;1.92;;
84117;SDS011;74212;51.132;6.950;2023-11-21T08:00:11;2.60;;;1.60;;
84117;SDS011;74212;51.132;6.950;2023-11-21T08:02:40;5.85;;;1.92;;
84117;SDS011;74212;51.132;6.950;2023-11-21T08:05:07;4.65;;;1.85;;
84117;SDS011;74212;51.132;6.950;2023-11-21T08:07:33;4.43;;;2.13;;
84117;SDS011;74212;51.132;6.950;2023-11-21T08:09:59;4.85;;;2.13;;
84117;SDS011;74212;51.132;6.950;2023-11-21T08:12:24;2.92;;;1.70;;
84117;SDS011;74212;51.132;6.950;2023-11-21T08:14:52;3.72;;;2.13;;
84117;SDS011;74212;51.132;6.950;2023-11-21T08:17:17;4.40;;;2.08;;
84117;SDS011;74212;51.132;6.950;2023-11-21T08:19:45;3.97;;;2.20;;
84117;SDS011;74212;51.132;6.950;2023-11-21T08:22:14;4.13;;;2.63;;
84117;SDS011;74212;51.132;6.950;2023-11-21T08:24:43;3.60;;;2.05;;
84117;SDS011;74212;51.132;6.950;2023-11-21T08:27:09;3.53;;;2.13;;
84117;SDS011;74212;51.132;6.950;2023-11-21T08:29:34;5.78;;;2.55;;
84117;SDS011;74212;51.132;6.950;2023-11-21T08:32:01;5.78;;;2.35;;
84117;SDS011;74212;51.132;6.950;2023-11-21T08:34:27;4.07;;;2.20;;
84117;SDS011;74212;51.132;6.950;2023-11-21T08:36:53;4.88;;;2.17;;
84117;SDS011;74212;51.132;6.950;2023-11-21T08:39:18;3.28;;;2.28;;
84117;SDS011;74212;51.132;6.950;2023-11-21T08:41:44;4.18;;;2.75;;
84117;SDS011;74212;51.132;6.950;2023-11-21T08:44:09;3.72;;;2.30;;
84117;SDS011;74212;51.132;6.950;2023-11-21T08:46:35;3.97;;;2.75;;
84117;SDS011;74212;51.132;6.950;2023-11-21T08:49:01;6.70;;;3.03;;
84117;SDS011;74212;51.132;6.950;2023-11-21T08:51:27;4.50;;;2.70;;
84117;SDS011;74212;51.132;6.950;2023-11-21T08:53:52;4.95;;;2.22;;
84117;SDS011;74212;51.132;6.950;2023-11-21T08:56:18;4.85;;;2.50;;
84117;SDS011;74212;51.132;6.950;2023-11-21T08:58:45;5.13;;;2.72;;
84117;SDS011;74212;51.132;6.950;2023-11-21T09:01:11;4.72;;;2.53;;
84117;SDS011;74212;51.132;6.950;2023-11-21T09:03:37;6.32;;;2.60;;
84117;SDS011;74212;51.132;6.950;2023-11-21T09:06:03;5.15;;;2.72;;
84117;SDS011;74212;51.132;6.950;2023-11-21T09:08:29;5.47;;;3.03;;
84117;SDS011;74212;51.132;6.950;2023-11-21T09:10:54;5.45;;;2.63;;
84117;SDS011;74212;51.132;6.950;2023-11-21T09:13:20;4.53;;;2.95;;
84117;SDS011;74212;51.132;6.950;2023-11-21T09:15:45;5.05;;;2.45;;
84117;SDS011;74212;51.132;6.950;2023-11-21T09:18:14;4.30;;;3.00;;
84117;SDS011;74212;51.132;6.950;2023-11-21T09:20:40;4.85;;;2.92;;
84117;SDS011;74212;51.132;6.950;2023-11-21T09:23:06;6.05;;;2.47;;
84117;SDS011;74212;51.132;6.950;2023-11-21T09:25:32;5.32;;;2.53;;
84117;SDS011;74212;51.132;6.950;2023-11-21T09:27:58;4.50;;;2.97;;
84117;SDS011;74212;51.132;6.950;2023-11-21T09:30:23;5.20;;;2.92;;
84117;SDS011;74212;51.132;6.950;2023-11-21T09:32:50;4.30;;;2.90;;
84117;SDS011;74212;51.132;6.950;2023-11-21T09:35:15;4.57;;;2.42;;
84117;SDS011;74212;51.132;6.950;2023-11-21T09:37:43;5.28;;;2.97;;
84117;SDS011;74212;51.132;6.950;2023-11-21T09:40:10;5.80;;;3.00;;
84117;SDS011;74212;51.132;6.950;2023-11-21T09:42:39;5.10;;;2.63;;
84117;SDS011;74212;51.132;6.950;2023-11-21T09:45:27;8.65;;;2.90;;
84117;SDS011;74212;51.132;6.950;2023-11-21T09:47:54;4.60;;;2.97;;
84117;SDS011;74212;51.132;6.950;2023-11-21T09:50:23;5.18;;;3.00;;
84117;SDS011;74212;51.132;6.950;2023-11-21T09:55:22;7.68;;;3.70;;
84117;SDS011;74212;51.132;6.950;2023-11-21T09:57:48;5.50;;;2.90;;
84117;SDS011;74212;51.132;6.950;2023-11-21T10:00:14;5.05;;;2.88;;
84117;SDS011;74212;51.132;6.950;2023-11-21T10:02:42;6.15;;;3.05;;
84117;SDS011;74212;51.132;6.950;2023-11-21T10:05:08;6.38;;;3.03;;
84117;SDS011;74212;51.132;6.950;2023-11-21T10:07:36;5.35;;;3.05;;
84117;SDS011;74212;51.132;6.950;2023-11-21T10:10:02;4.20;;;2.60;;
84117;SDS011;74212;51.132;6.950;2023-11-21T10:12:28;6.18;;;3.58;;
84117;SDS011;74212;51.132;6.950;2023-11-21T10:14:54;6.20;;;3.05;;
84117;SDS011;74212;51.132;6.950;2023-11-21T10:17:20;5.68;;;3.53;;
84117;SDS011;74212;51.132;6.950;2023-11-21T10:19:51;6.53;;;3.70;;
84117;SDS011;74212;51.132;6.950;2023-11-21T10:22:18;4.88;;;2.85;;
84117;SDS011;74212;51.132;6.950;2023-11-21T10:24:45;7.22;;;3.15;;
84117;SDS011;74212;51.132;6.950;2023-11-21T10:27:10;5.93;;;2.97;;
84117;SDS011;74212;51.132;6.950;2023-11-21T10:29:35;6.20;;;3.65;;
84117;SDS011;74212;51.132;6.950;2023-11-21T10:32:04;5.45;;;3.40;;
84117;SDS011;74212;51.132;6.950;2023-11-21T10:34:30;4.68;;;3.33;;
84117;SDS011;74212;51.132;6.950;2023-11-21T10:36:56;6.85;;;3.25;;
84117;SDS011;74212;51.132;6.950;2023-11-21T10:39:23;7.18;;;3.58;;
84117;SDS011;74212;51.132;6.950;2023-11-21T10:41:52;6.07;;;3.70;;
84117;SDS011;74212;51.132;6.950;2023-11-21T10:44:18;6.13;;;3.25;;
84117;SDS011;74212;51.132;6.950;2023-11-21T10:46:49;6.53;;;3.67;;
84117;SDS011;74212;51.132;6.950;2023-11-21T10:49:26;8.98;;;3.88;;
84117;SDS011;74212;51.132;6.950;2023-11-21T10:51:55;6.32;;;3.05;;
84117;SDS011;74212;51.132;6.950;2023-11-21T10:54:21;4.75;;;2.95;;
84117;SDS011;74212;51.132;6.950;2023-11-21T10:56:50;4.85;;;3.17;;
84117;SDS011;74212;51.132;6.950;2023-11-21T10:59:19;4.55;;;2.85;;
84117;SDS011;74212;51.132;6.950;2023-11-21T11:01:46;4.80;;;3.13;;
84117;SDS011;74212;51.132;6.950;2023-11-21T11:04:14;4.82;;;3.10;;
84117;SDS011;74212;51.132;6.950;2023-11-21T11:06:43;6.50;;;3.30;;
84117;SDS011;74212;51.132;6.950;2023-11-21T11:09:13;6.90;;;3.25;;
84117;SDS011;74212;51.132;6.950;2023-11-21T11:11:39;5.65;;;3.50;;
84117;SDS011;74212;51.132;6.950;2023-11-21T11:14:06;4.25;;;2.90;;
84117;SDS011;74212;51.132;6.950;2023-11-21T11:16:34;5.72;;;3.47;;
84117;SDS011;74212;51.132;6.950;2023-11-21T11:19:00;5.10;;;3.42;;
84117;SDS011;74212;51.132;6.950;2023-11-21T11:38:10;5.05;;;3.05;;
84117;SDS011;74212;51.132;6.950;2023-11-21T11:40:39;5.93;;;3.17;;
84117;SDS011;74212;51.132;6.950;2023-11-21T11:43:05;4.45;;;3.13;;
84117;SDS011;74212;51.132;6.950;2023-11-21T11:45:32;6.55;;;2.97;;
84117;SDS011;74212;51.132;6.950;2023-11-21T11:47:59;5.22;;;3.92;;
84117;SDS011;74212;51.132;6.950;2023-11-21T11:50:25;6.32;;;3.00;;
84117;SDS011;74212;51.132;6.950;2023-11-21T11:52:55;5.68;;;3.55;;
84117;SDS011;74212;51.132;6.950;2023-11-21T11:55:22;5.30;;;3.33;;
84117;SDS011;74212;51.132;6.950;2023-11-21T11:57:49;5.00;;;3.25;;
84117;SDS011;74212;51.132;6.950;2023-11-21T12:02:45;3.58;;;3.17;;
84117;SDS011;74212;51.132;6.950;2023-11-21T12:05:12;6.05;;;3.38;;
84117;SDS011;74212;51.132;6.950;2023-11-21T12:07:41;6.20;;;3.17;;
84117;SDS011;74212;51.132;6.950;2023-11-21T12:10:14;4.00;;;3.42;;
84117;SDS011;74212;51.132;6.950;2023-11-21T12:12:43;5.22;;;3.05;;
84117;SDS011;74212;51.132;6.950;2023-11-21T12:15:12;4.18;;;2.92;;
84117;SDS011;74212;51.132;6.950;2023-11-21T12:17:38;5.55;;;3.53;;
84117;SDS011;74212;51.132;6.950;2023-11-21T12:20:05;5.95;;;3.33;;
84117;SDS011;74212;51.132;6.950;2023-11-21T12:22:39;5.53;;;3.55;;
84117;SDS011;74212;51.132;6.950;2023-11-21T12:25:21;6.22;;;3.63;;
84117;SDS011;74212;51.132;6.950;2023-11-21T12:27:51;5.82;;;3.55;;
84117;SDS011;74212;51.132;6.950;2023-11-21T12:30:21;6.82;;;4.43;;
84117;SDS011;74212;51.132;6.950;2023-11-21T12:32:48;5.32;;;3.75;;
84117;SDS011;74212;51.132;6.950;2023-11-21T12:35:16;5.30;;;3.17;;
84117;SDS011;74212;51.132;6.950;2023-11-21T12:37:44;4.85;;;3.40;;
84117;SDS011;74212;51.132;6.950;2023-11-21T12:40:10;6.18;;;3.85;;
84117;SDS011;74212;51.132;6.950;2023-11-21T12:42:47;6.38;;;3.95;;
84117;SDS011;74212;51.132;6.950;2023-11-21T12:47:45;4.85;;;3.38;;
84117;SDS011;74212;51.132;6.950;2023-11-21T12:50:11;4.53;;;3.25;;
84117;SDS011;74212;51.132;6.950;2023-11-21T12:52:43;5.78;;;3.42;;
84117;SDS011;74212;51.132;6.950;2023-11-21T12:55:19;7.85;;;4.28;;
84117;SDS011;74212;51.132;6.950;2023-11-21T12:57:50;7.80;;;4.82;;
84117;SDS011;74212;51.132;6.950;2023-11-21T13:00:17;11.65;;;5.18;;
84117;SDS011;74212;51.132;6.950;2023-11-21T13:02:52;7.07;;;4.53;;
84117;SDS011;74212;51.132;6.950;2023-11-21T13:05:28;7.40;;;4.80;;
84117;SDS011;74212;51.132;6.950;2023-11-21T13:08:04;9.65;;;4.63;;
84117;SDS011;74212;51.132;6.950;2023-11-21T13:10:33;6.93;;;4.60;;
84117;SDS011;74212;51.132;6.950;2023-11-21T13:13:02;9.13;;;5.50;;
84117;SDS011;74212;51.132;6.950;2023-11-21T13:15:30;9.60;;;5.65;;
84117;SDS011;74212;51.132;6.950;2023-11-21T13:17:57;9.27;;;4.80;;
84117;SDS011;74212;51.132;6.950;2023-11-21T13:20:23;10.15;;;5.13;;
84117;SDS011;74212;51.132;6.950;2023-11-21T13:22:52;9.48;;;5.57;;
84117;SDS011;74212;51.132;6.950;2023-11-21T13:25:29;8.90;;;4.75;;
84117;SDS011;74212;51.132;6.950;2023-11-21T13:27:56;9.55;;;4.75;;
84117;SDS011;74212;51.132;6.950;2023-11-21T13:30:22;7.88;;;5.05;;
84117;SDS011;74212;51.132;6.950;2023-11-21T13:32:52;9.50;;;5.25;;
84117;SDS011;74212;51.132;6.950;2023-11-21T13:35:22;9.30;;;4.57;;
84117;SDS011;74212;51.132;6.950;2023-11-21T13:37:56;7.80;;;5.20;;
84117;SDS011;74212;51.132;6.950;2023-11-21T13:40:24;10.98;;;5.30;;
84117;SDS011;74212;51.132;6.950;2023-11-21T13:42:53;10.68;;;5.28;;
84117;SDS011;74212;51.132;6.950;2023-11-21T13:45:20;11.27;;;5.13;;
84117;SDS011;74212;51.132;6.950;2023-11-21T13:47:47;12.05;;;5.50;;
84117;SDS011;74212;51.132;6.950;2023-11-21T13:50:16;9.15;;;5.47;;
84117;SDS011;74212;51.132;6.950;2023-11-21T13:52:47;7.65;;;5.25;;
84117;SDS011;74212;51.132;6.950;2023-11-21T13:55:13;14.25;;;5.68;;
84117;SDS011;74212;51.132;6.950;2023-11-21T13:57:41;12.70;;;6.18;;
84117;SDS011;74212;51.132;6.950;2023-11-21T14:00:14;10.88;;;5.13;;
84117;SDS011;74212;51.132;6.950;2023-11-21T14:03:00;8.50;;;5.00;;
84117;SDS011;74212;51.132;6.950;2023-11-21T14:05:29;10.10;;;5.40;;
84117;SDS011;74212;51.132;6.950;2023-11-21T14:07:57;8.13;;;5.22;;
84117;SDS011;74212;51.132;6.950;2023-11-21T14:10:31;10.85;;;5.65;;
84117;SDS011;74212;51.132;6.950;2023-11-21T14:13:08;8.70;;;5.22;;
84117;SDS011;74212;51.132;6.950;2023-11-21T14:15:35;9.80;;;5.05;;
84117;SDS011;74212;51.132;6.950;2023-11-21T14:18:06;12.38;;;5.97;;
84117;SDS011;74212;51.132;6.950;2023-11-21T14:20:35;11.05;;;5.93;;
84117;SDS011;74212;51.132;6.950;2023-11-21T14:23:02;9.70;;;6.00;;
84117;SDS011;74212;51.132;6.950;2023-11-21T14:25:29;11.85;;;5.85;;
84117;SDS011;74212;51.132;6.950;2023-11-21T14:27:55;10.05;;;5.93;;
84117;SDS011;74212;51.132;6.950;2023-11-21T14:30:21;10.88;;;5.80;;
84117;SDS011;74212;51.132;6.950;2023-11-21T14:32:47;12.85;;;6.82;;
84117;SDS011;74212;51.132;6.950;2023-11-21T14:35:14;12.20;;;5.47;;
84117;SDS011;74212;51.132;6.950;2023-11-21T14:37:40;12.55;;;6.25;;
84117;SDS011;74212;51.132;6.950;2023-11-21T14:40:06;8.27;;;5.68;;
84117;SDS011;74212;51.132;6.950;2023-11-21T14:42:33;11.93;;;6.68;;
84117;SDS011;74212;51.132;6.950;2023-11-21T14:44:59;9.45;;;5.70;;
84117;SDS011;74212;51.132;6.950;2023-11-21T14:47:28;12.65;;;5.55;;
84117;SDS011;74212;51.132;6.950;2023-11-21T14:49:54;11.90;;;5.38;;
84117;SDS011;74212;51.132;6.950;2023-11-21T14:52:24;11.02;;;5.43;;
84117;SDS011;74212;51.132;6.950;2023-11-21T14:54:59;9.20;;;5.97;;
84117;SDS011;74212;51.132;6.950;2023-11-21T14:57:45;11.70;;;5.25;;
84117;SDS011;74212;51.132;6.950;2023-11-21T15:03:01;10.75;;;5.35;;
84117;SDS011;74212;51.132;6.950;2023-11-21T15:05:27;10.23;;;6.05;;
84117;SDS011;74212;51.132;6.950;2023-11-21T15:07:53;15.02;;;5.53;;
84117;SDS011;74212;51.132;6.950;2023-11-21T15:10:21;10.13;;;5.38;;